Rosehearty, United Kingdom
Current Conditions -  °F | °C
As of 6:20 AM on Saturday 29 Nov 2014 (Local Time) from EGPD Reporting Station
Haze Haze  
Wind Chill: 44°   Ceiling: 600
Heat Index: 48°   Visibility: 2.8mi
Dew Point: 46°   Wind: 10mph
Humidity: 93%   Direction: 140°SE
Pressure: 29.91"   Gusts: NA
Location:  57.7°N, 2.11°W
Report Text: EGPD 290620Z 14009KT 4500 BR BKN006 09/08 Q1013 NOSIG
Loading
Personal Weather Stations






























Interactive Weather Map New forecast layout! Learn more

10-Day Weather Forecast

Advertisements
Track Severe Weather on mobile